sensor_id;sensor_type;location;lat;lon;timestamp;P1;durP1;ratioP1;P2;durP2;ratioP2
75316;SDS011;63913;51.492;10.368;2023-06-26T00:00:24;3.67;;;2.93;;
75316;SDS011;63913;51.492;10.368;2023-06-26T00:02:50;3.90;;;2.78;;
75316;SDS011;63913;51.492;10.368;2023-06-26T00:05:15;3.22;;;2.83;;
75316;SDS011;63913;51.492;10.368;2023-06-26T00:07:40;3.97;;;2.75;;
75316;SDS011;63913;51.492;10.368;2023-06-26T00:10:06;3.08;;;2.60;;
75316;SDS011;63913;51.492;10.368;2023-06-26T00:12:31;3.67;;;3.13;;
75316;SDS011;63913;51.492;10.368;2023-06-26T00:14:57;5.30;;;2.80;;
75316;SDS011;63913;51.492;10.368;2023-06-26T00:17:22;3.47;;;2.65;;
75316;SDS011;63913;51.492;10.368;2023-06-26T00:19:48;4.45;;;3.50;;
75316;SDS011;63913;51.492;10.368;2023-06-26T00:22:14;4.30;;;3.00;;
75316;SDS011;63913;51.492;10.368;2023-06-26T00:24:40;4.57;;;2.97;;
75316;SDS011;63913;51.492;10.368;2023-06-26T00:27:05;4.25;;;2.50;;
75316;SDS011;63913;51.492;10.368;2023-06-26T00:29:31;4.25;;;2.97;;
75316;SDS011;63913;51.492;10.368;2023-06-26T00:31:56;3.47;;;2.83;;
75316;SDS011;63913;51.492;10.368;2023-06-26T00:34:21;3.75;;;2.80;;
75316;SDS011;63913;51.492;10.368;2023-06-26T00:36:47;4.65;;;2.78;;
75316;SDS011;63913;51.492;10.368;2023-06-26T00:39:12;4.18;;;2.80;;
75316;SDS011;63913;51.492;10.368;2023-06-26T00:41:38;3.50;;;2.85;;
75316;SDS011;63913;51.492;10.368;2023-06-26T00:44:04;4.55;;;2.67;;
75316;SDS011;63913;51.492;10.368;2023-06-26T00:46:29;3.88;;;3.10;;
75316;SDS011;63913;51.492;10.368;2023-06-26T00:48:55;4.38;;;2.58;;
75316;SDS011;63913;51.492;10.368;2023-06-26T00:51:23;4.00;;;3.30;;
75316;SDS011;63913;51.492;10.368;2023-06-26T00:53:49;5.75;;;3.55;;
75316;SDS011;63913;51.492;10.368;2023-06-26T00:56:17;4.80;;;3.38;;
75316;SDS011;63913;51.492;10.368;2023-06-26T00:58:44;4.40;;;3.40;;
75316;SDS011;63913;51.492;10.368;2023-06-26T01:01:09;3.45;;;2.97;;
75316;SDS011;63913;51.492;10.368;2023-06-26T01:03:40;3.67;;;2.90;;
75316;SDS011;63913;51.492;10.368;2023-06-26T01:06:07;4.93;;;3.20;;
75316;SDS011;63913;51.492;10.368;2023-06-26T01:08:36;3.40;;;2.40;;
75316;SDS011;63913;51.492;10.368;2023-06-26T01:11:03;4.75;;;2.88;;
75316;SDS011;63913;51.492;10.368;2023-06-26T01:13:29;3.92;;;2.95;;
75316;SDS011;63913;51.492;10.368;2023-06-26T01:15:55;3.85;;;2.83;;
75316;SDS011;63913;51.492;10.368;2023-06-26T01:18:22;6.90;;;3.25;;
75316;SDS011;63913;51.492;10.368;2023-06-26T01:20:49;3.53;;;3.00;;
75316;SDS011;63913;51.492;10.368;2023-06-26T01:28:33;4.60;;;2.85;;
75316;SDS011;63913;51.492;10.368;2023-06-26T01:31:01;3.92;;;2.78;;
75316;SDS011;63913;51.492;10.368;2023-06-26T01:33:29;4.00;;;2.85;;
75316;SDS011;63913;51.492;10.368;2023-06-26T01:35:55;4.47;;;3.05;;
75316;SDS011;63913;51.492;10.368;2023-06-26T01:38:21;4.47;;;3.35;;
75316;SDS011;63913;51.492;10.368;2023-06-26T01:40:48;3.83;;;2.60;;
75316;SDS011;63913;51.492;10.368;2023-06-26T01:43:15;5.07;;;3.33;;
75316;SDS011;63913;51.492;10.368;2023-06-26T01:45:50;5.78;;;3.15;;
75316;SDS011;63913;51.492;10.368;2023-06-26T01:48:18;3.53;;;3.17;;
75316;SDS011;63913;51.492;10.368;2023-06-26T01:50:49;4.72;;;3.17;;
75316;SDS011;63913;51.492;10.368;2023-06-26T01:53:17;4.22;;;3.05;;
75316;SDS011;63913;51.492;10.368;2023-06-26T01:55:50;3.65;;;3.08;;
75316;SDS011;63913;51.492;10.368;2023-06-26T01:58:20;4.78;;;3.08;;
75316;SDS011;63913;51.492;10.368;2023-06-26T02:00:48;3.90;;;2.83;;
75316;SDS011;63913;51.492;10.368;2023-06-26T02:03:14;4.38;;;3.35;;
75316;SDS011;63913;51.492;10.368;2023-06-26T02:05:39;4.45;;;2.80;;
75316;SDS011;63913;51.492;10.368;2023-06-26T02:08:05;3.67;;;3.00;;
75316;SDS011;63913;51.492;10.368;2023-06-26T02:10:31;5.93;;;3.00;;
75316;SDS011;63913;51.492;10.368;2023-06-26T02:12:56;5.75;;;3.50;;
75316;SDS011;63913;51.492;10.368;2023-06-26T02:15:22;4.90;;;3.33;;
75316;SDS011;63913;51.492;10.368;2023-06-26T02:17:47;4.03;;;2.83;;
75316;SDS011;63913;51.492;10.368;2023-06-26T02:20:13;4.82;;;3.80;;
75316;SDS011;63913;51.492;10.368;2023-06-26T02:22:40;6.07;;;3.67;;
75316;SDS011;63913;51.492;10.368;2023-06-26T02:25:08;3.50;;;3.20;;
75316;SDS011;63913;51.492;10.368;2023-06-26T02:27:34;5.05;;;3.00;;
75316;SDS011;63913;51.492;10.368;2023-06-26T02:29:59;5.30;;;3.47;;
75316;SDS011;63913;51.492;10.368;2023-06-26T02:32:24;5.68;;;3.28;;
75316;SDS011;63913;51.492;10.368;2023-06-26T02:34:50;4.38;;;3.58;;
75316;SDS011;63913;51.492;10.368;2023-06-26T02:37:19;4.10;;;3.50;;
75316;SDS011;63913;51.492;10.368;2023-06-26T02:39:45;4.13;;;3.22;;
75316;SDS011;63913;51.492;10.368;2023-06-26T02:42:11;4.93;;;3.60;;
75316;SDS011;63913;51.492;10.368;2023-06-26T02:44:36;4.35;;;3.80;;
75316;SDS011;63913;51.492;10.368;2023-06-26T02:47:02;4.32;;;3.28;;
75316;SDS011;63913;51.492;10.368;2023-06-26T02:49:28;4.93;;;3.85;;
75316;SDS011;63913;51.492;10.368;2023-06-26T02:51:54;5.97;;;3.97;;
75316;SDS011;63913;51.492;10.368;2023-06-26T02:54:24;4.50;;;3.55;;
75316;SDS011;63913;51.492;10.368;2023-06-26T02:56:53;5.07;;;3.60;;
75316;SDS011;63913;51.492;10.368;2023-06-26T02:59:23;5.78;;;3.70;;
75316;SDS011;63913;51.492;10.368;2023-06-26T03:01:49;5.38;;;3.45;;
75316;SDS011;63913;51.492;10.368;2023-06-26T03:04:14;5.53;;;3.80;;
75316;SDS011;63913;51.492;10.368;2023-06-26T03:06:41;4.63;;;3.78;;
75316;SDS011;63913;51.492;10.368;2023-06-26T03:09:07;4.85;;;3.95;;
75316;SDS011;63913;51.492;10.368;2023-06-26T03:11:32;5.47;;;4.47;;
75316;SDS011;63913;51.492;10.368;2023-06-26T03:13:57;4.95;;;3.60;;
75316;SDS011;63913;51.492;10.368;2023-06-26T03:16:23;5.18;;;3.90;;
75316;SDS011;63913;51.492;10.368;2023-06-26T03:18:49;6.32;;;4.13;;
75316;SDS011;63913;51.492;10.368;2023-06-26T03:21:14;5.25;;;3.65;;
75316;SDS011;63913;51.492;10.368;2023-06-26T03:23:40;4.88;;;3.92;;
75316;SDS011;63913;51.492;10.368;2023-06-26T03:26:05;5.90;;;3.53;;
75316;SDS011;63913;51.492;10.368;2023-06-26T03:28:34;5.30;;;3.67;;
75316;SDS011;63913;51.492;10.368;2023-06-26T03:30:59;6.97;;;4.07;;
75316;SDS011;63913;51.492;10.368;2023-06-26T03:33:25;6.38;;;3.85;;
75316;SDS011;63913;51.492;10.368;2023-06-26T03:35:50;6.53;;;4.15;;
75316;SDS011;63913;51.492;10.368;2023-06-26T03:38:15;5.30;;;4.10;;
75316;SDS011;63913;51.492;10.368;2023-06-26T03:40:43;4.38;;;3.53;;
75316;SDS011;63913;51.492;10.368;2023-06-26T03:43:08;4.22;;;3.50;;
75316;SDS011;63913;51.492;10.368;2023-06-26T03:45:43;6.38;;;3.67;;
75316;SDS011;63913;51.492;10.368;2023-06-26T03:48:09;4.75;;;3.58;;
75316;SDS011;63913;51.492;10.368;2023-06-26T03:50:35;5.50;;;3.95;;
75316;SDS011;63913;51.492;10.368;2023-06-26T03:53:01;5.25;;;3.17;;
75316;SDS011;63913;51.492;10.368;2023-06-26T03:55:26;4.05;;;3.20;;
75316;SDS011;63913;51.492;10.368;2023-06-26T03:57:52;6.93;;;3.78;;
75316;SDS011;63913;51.492;10.368;2023-06-26T04:00:17;4.25;;;3.40;;
75316;SDS011;63913;51.492;10.368;2023-06-26T04:02:42;5.88;;;3.67;;
75316;SDS011;63913;51.492;10.368;2023-06-26T04:05:10;6.13;;;4.43;;
75316;SDS011;63913;51.492;10.368;2023-06-26T04:07:36;5.93;;;3.63;;
75316;SDS011;63913;51.492;10.368;2023-06-26T04:10:04;5.15;;;3.67;;
75316;SDS011;63913;51.492;10.368;2023-06-26T04:12:32;4.75;;;3.67;;
75316;SDS011;63913;51.492;10.368;2023-06-26T04:14:58;4.63;;;3.75;;
75316;SDS011;63913;51.492;10.368;2023-06-26T04:17:23;4.55;;;3.40;;
75316;SDS011;63913;51.492;10.368;2023-06-26T04:19:49;4.53;;;3.33;;
75316;SDS011;63913;51.492;10.368;2023-06-26T04:22:14;9.40;;;5.18;;
75316;SDS011;63913;51.492;10.368;2023-06-26T04:24:39;6.07;;;4.10;;
75316;SDS011;63913;51.492;10.368;2023-06-26T04:27:05;6.80;;;3.65;;
75316;SDS011;63913;51.492;10.368;2023-06-26T04:29:30;4.55;;;3.58;;
75316;SDS011;63913;51.492;10.368;2023-06-26T04:31:56;6.05;;;3.50;;
75316;SDS011;63913;51.492;10.368;2023-06-26T04:34:25;5.85;;;3.13;;
75316;SDS011;63913;51.492;10.368;2023-06-26T04:36:51;6.65;;;3.55;;
75316;SDS011;63913;51.492;10.368;2023-06-26T04:39:16;5.68;;;3.58;;
75316;SDS011;63913;51.492;10.368;2023-06-26T04:41:42;5.18;;;3.65;;
75316;SDS011;63913;51.492;10.368;2023-06-26T04:44:07;4.57;;;3.20;;
75316;SDS011;63913;51.492;10.368;2023-06-26T04:46:33;5.25;;;3.72;;
75316;SDS011;63913;51.492;10.368;2023-06-26T04:48:58;6.10;;;3.37;;
75316;SDS011;63913;51.492;10.368;2023-06-26T04:51:24;5.43;;;3.83;;
75316;SDS011;63913;51.492;10.368;2023-06-26T04:53:52;5.72;;;4.07;;
75316;SDS011;63913;51.492;10.368;2023-06-26T04:56:17;4.68;;;3.67;;
75316;SDS011;63913;51.492;10.368;2023-06-26T04:58:43;4.82;;;3.72;;
75316;SDS011;63913;51.492;10.368;2023-06-26T05:01:08;5.18;;;3.42;;
75316;SDS011;63913;51.492;10.368;2023-06-26T05:03:33;6.00;;;4.15;;
75316;SDS011;63913;51.492;10.368;2023-06-26T05:05:59;4.57;;;3.78;;
75316;SDS011;63913;51.492;10.368;2023-06-26T05:08:26;4.45;;;3.45;;
75316;SDS011;63913;51.492;10.368;2023-06-26T05:10:52;4.55;;;3.38;;
75316;SDS011;63913;51.492;10.368;2023-06-26T05:13:18;4.05;;;3.20;;
75316;SDS011;63913;51.492;10.368;2023-06-26T05:15:45;5.07;;;3.60;;
75316;SDS011;63913;51.492;10.368;2023-06-26T05:18:11;7.13;;;3.35;;
75316;SDS011;63913;51.492;10.368;2023-06-26T05:20:36;4.43;;;3.42;;
75316;SDS011;63913;51.492;10.368;2023-06-26T05:23:02;4.63;;;3.70;;
75316;SDS011;63913;51.492;10.368;2023-06-26T05:25:31;4.70;;;3.30;;
75316;SDS011;63913;51.492;10.368;2023-06-26T05:27:59;4.88;;;3.30;;
75316;SDS011;63913;51.492;10.368;2023-06-26T05:30:24;5.63;;;3.42;;
75316;SDS011;63913;51.492;10.368;2023-06-26T05:32:51;5.47;;;4.65;;
75316;SDS011;63913;51.492;10.368;2023-06-26T05:35:18;5.10;;;4.00;;
75316;SDS011;63913;51.492;10.368;2023-06-26T05:37:45;4.65;;;3.60;;
75316;SDS011;63913;51.492;10.368;2023-06-26T05:40:10;5.97;;;3.88;;
75316;SDS011;63913;51.492;10.368;2023-06-26T05:42:37;5.93;;;3.55;;
75316;SDS011;63913;51.492;10.368;2023-06-26T05:45:02;4.85;;;3.42;;
75316;SDS011;63913;51.492;10.368;2023-06-26T05:47:27;5.43;;;3.67;;
75316;SDS011;63913;51.492;10.368;2023-06-26T05:49:53;4.22;;;3.53;;
75316;SDS011;63913;51.492;10.368;2023-06-26T05:52:19;4.85;;;3.63;;
75316;SDS011;63913;51.492;10.368;2023-06-26T05:54:44;6.25;;;4.00;;
75316;SDS011;63913;51.492;10.368;2023-06-26T05:57:10;6.07;;;3.28;;
75316;SDS011;63913;51.492;10.368;2023-06-26T05:59:38;3.65;;;3.15;;
75316;SDS011;63913;51.492;10.368;2023-06-26T06:02:05;3.92;;;3.53;;
75316;SDS011;63913;51.492;10.368;2023-06-26T06:04:35;6.43;;;3.55;;
75316;SDS011;63913;51.492;10.368;2023-06-26T06:07:02;4.82;;;3.55;;
75316;SDS011;63913;51.492;10.368;2023-06-26T06:09:27;5.03;;;3.78;;
75316;SDS011;63913;51.492;10.368;2023-06-26T06:11:53;4.55;;;3.58;;
75316;SDS011;63913;51.492;10.368;2023-06-26T06:14:19;7.18;;;3.90;;
75316;SDS011;63913;51.492;10.368;2023-06-26T06:16:45;4.47;;;3.60;;
75316;SDS011;63913;51.492;10.368;2023-06-26T06:19:11;4.20;;;3.40;;
75316;SDS011;63913;51.492;10.368;2023-06-26T06:21:39;7.85;;;3.63;;
75316;SDS011;63913;51.492;10.368;2023-06-26T06:24:05;5.95;;;4.30;;
75316;SDS011;63913;51.492;10.368;2023-06-26T06:26:34;7.47;;;3.80;;
75316;SDS011;63913;51.492;10.368;2023-06-26T06:29:00;5.03;;;3.83;;
75316;SDS011;63913;51.492;10.368;2023-06-26T06:31:25;4.32;;;3.40;;
75316;SDS011;63913;51.492;10.368;2023-06-26T06:33:56;4.43;;;3.47;;
75316;SDS011;63913;51.492;10.368;2023-06-26T06:36:21;4.45;;;3.78;;
75316;SDS011;63913;51.492;10.368;2023-06-26T06:38:47;5.70;;;3.67;;
75316;SDS011;63913;51.492;10.368;2023-06-26T06:41:12;4.82;;;4.10;;
75316;SDS011;63913;51.492;10.368;2023-06-26T06:43:39;8.82;;;4.05;;
75316;SDS011;63913;51.492;10.368;2023-06-26T06:46:04;4.00;;;3.30;;
75316;SDS011;63913;51.492;10.368;2023-06-26T06:48:30;4.60;;;3.35;;
75316;SDS011;63913;51.492;10.368;2023-06-26T06:50:56;5.45;;;3.72;;
75316;SDS011;63913;51.492;10.368;2023-06-26T06:53:22;7.07;;;3.42;;
75316;SDS011;63913;51.492;10.368;2023-06-26T06:55:48;4.93;;;3.72;;
75316;SDS011;63913;51.492;10.368;2023-06-26T06:58:14;4.32;;;3.42;;
75316;SDS011;63913;51.492;10.368;2023-06-26T07:00:41;5.95;;;3.58;;
75316;SDS011;63913;51.492;10.368;2023-06-26T07:03:07;4.43;;;3.83;;
75316;SDS011;63913;51.492;10.368;2023-06-26T07:05:32;4.97;;;3.70;;
75316;SDS011;63913;51.492;10.368;2023-06-26T07:07:58;6.05;;;3.88;;
75316;SDS011;63913;51.492;10.368;2023-06-26T07:10:23;4.45;;;3.60;;
75316;SDS011;63913;51.492;10.368;2023-06-26T07:12:49;4.57;;;3.90;;
75316;SDS011;63913;51.492;10.368;2023-06-26T07:15:16;6.47;;;3.53;;
75316;SDS011;63913;51.492;10.368;2023-06-26T07:17:42;4.35;;;3.50;;
75316;SDS011;63913;51.492;10.368;2023-06-26T07:20:07;4.35;;;3.78;;
75316;SDS011;63913;51.492;10.368;2023-06-26T07:22:35;3.97;;;3.38;;
75316;SDS011;63913;51.492;10.368;2023-06-26T07:25:05;7.22;;;4.18;;
75316;SDS011;63913;51.492;10.368;2023-06-26T07:27:34;3.80;;;3.40;;
75316;SDS011;63913;51.492;10.368;2023-06-26T07:29:59;4.60;;;3.80;;
75316;SDS011;63913;51.492;10.368;2023-06-26T07:32:24;4.53;;;3.40;;
75316;SDS011;63913;51.492;10.368;2023-06-26T07:34:50;5.60;;;4.07;;
75316;SDS011;63913;51.492;10.368;2023-06-26T07:37:15;4.97;;;3.55;;
75316;SDS011;63913;51.492;10.368;2023-06-26T07:39:40;5.07;;;3.85;;
75316;SDS011;63913;51.492;10.368;2023-06-26T07:42:06;4.32;;;3.42;;
75316;SDS011;63913;51.492;10.368;2023-06-26T07:44:32;4.25;;;3.47;;
75316;SDS011;63913;51.492;10.368;2023-06-26T07:46:57;4.20;;;3.57;;
75316;SDS011;63913;51.492;10.368;2023-06-26T07:49:23;5.15;;;4.25;;
75316;SDS011;63913;51.492;10.368;2023-06-26T07:51:49;5.60;;;3.90;;
75316;SDS011;63913;51.492;10.368;2023-06-26T07:54:14;3.92;;;3.35;;
75316;SDS011;63913;51.492;10.368;2023-06-26T07:56:59;5.03;;;3.42;;
75316;SDS011;63913;51.492;10.368;2023-06-26T07:59:26;5.95;;;3.92;;
75316;SDS011;63913;51.492;10.368;2023-06-26T08:01:53;4.80;;;3.63;;
75316;SDS011;63913;51.492;10.368;2023-06-26T08:04:21;4.45;;;3.45;;
75316;SDS011;63913;51.492;10.368;2023-06-26T08:06:53;5.65;;;3.97;;
75316;SDS011;63913;51.492;10.368;2023-06-26T08:09:20;4.40;;;3.40;;
75316;SDS011;63913;51.492;10.368;2023-06-26T08:11:49;5.05;;;3.78;;
75316;SDS011;63913;51.492;10.368;2023-06-26T08:14:15;4.82;;;4.00;;
75316;SDS011;63913;51.492;10.368;2023-06-26T08:16:43;4.28;;;3.38;;
75316;SDS011;63913;51.492;10.368;2023-06-26T08:19:09;5.22;;;4.20;;
75316;SDS011;63913;51.492;10.368;2023-06-26T08:21:35;4.72;;;3.55;;
75316;SDS011;63913;51.492;10.368;2023-06-26T08:24:00;5.70;;;3.92;;
75316;SDS011;63913;51.492;10.368;2023-06-26T08:26:26;7.70;;;4.32;;
75316;SDS011;63913;51.492;10.368;2023-06-26T08:28:52;6.03;;;4.07;;
75316;SDS011;63913;51.492;10.368;2023-06-26T08:31:17;5.03;;;4.10;;
75316;SDS011;63913;51.492;10.368;2023-06-26T08:33:43;5.22;;;3.92;;
75316;SDS011;63913;51.492;10.368;2023-06-26T08:36:09;5.82;;;4.38;;
75316;SDS011;63913;51.492;10.368;2023-06-26T08:38:34;5.05;;;4.18;;
75316;SDS011;63913;51.492;10.368;2023-06-26T08:41:00;4.93;;;3.90;;
75316;SDS011;63913;51.492;10.368;2023-06-26T08:43:25;5.03;;;4.20;;
75316;SDS011;63913;51.492;10.368;2023-06-26T08:45:52;8.75;;;4.05;;
75316;SDS011;63913;51.492;10.368;2023-06-26T08:48:18;14.20;;;11.68;;
75316;SDS011;63913;51.492;10.368;2023-06-26T08:50:46;6.93;;;5.35;;
75316;SDS011;63913;51.492;10.368;2023-06-26T08:53:14;4.88;;;4.38;;
75316;SDS011;63913;51.492;10.368;2023-06-26T08:55:43;7.00;;;4.50;;
75316;SDS011;63913;51.492;10.368;2023-06-26T08:58:10;4.93;;;4.03;;
75316;SDS011;63913;51.492;10.368;2023-06-26T09:00:36;5.70;;;3.63;;
75316;SDS011;63913;51.492;10.368;2023-06-26T09:03:02;4.20;;;3.72;;
75316;SDS011;63913;51.492;10.368;2023-06-26T09:05:28;6.47;;;3.65;;
75316;SDS011;63913;51.492;10.368;2023-06-26T09:07:53;5.25;;;3.63;;
75316;SDS011;63913;51.492;10.368;2023-06-26T09:10:21;4.85;;;3.40;;
75316;SDS011;63913;51.492;10.368;2023-06-26T09:12:47;4.43;;;3.33;;
75316;SDS011;63913;51.492;10.368;2023-06-26T09:15:15;4.22;;;3.80;;
75316;SDS011;63913;51.492;10.368;2023-06-26T09:17:42;4.63;;;3.97;;
75316;SDS011;63913;51.492;10.368;2023-06-26T09:20:07;6.47;;;4.43;;
75316;SDS011;63913;51.492;10.368;2023-06-26T09:22:33;4.60;;;4.20;;
75316;SDS011;63913;51.492;10.368;2023-06-26T09:25:03;5.43;;;4.25;;
75316;SDS011;63913;51.492;10.368;2023-06-26T09:27:29;7.18;;;5.07;;
75316;SDS011;63913;51.492;10.368;2023-06-26T09:29:55;7.82;;;4.10;;
75316;SDS011;63913;51.492;10.368;2023-06-26T09:32:23;6.55;;;5.22;;
75316;SDS011;63913;51.492;10.368;2023-06-26T09:34:51;4.35;;;3.70;;
75316;SDS011;63913;51.492;10.368;2023-06-26T09:37:17;6.63;;;4.60;;
75316;SDS011;63913;51.492;10.368;2023-06-26T09:39:43;5.47;;;3.90;;
75316;SDS011;63913;51.492;10.368;2023-06-26T09:42:09;5.25;;;4.20;;
75316;SDS011;63913;51.492;10.368;2023-06-26T09:44:35;4.95;;;4.40;;
75316;SDS011;63913;51.492;10.368;2023-06-26T09:47:03;5.05;;;3.75;;
75316;SDS011;63913;51.492;10.368;2023-06-26T09:49:29;5.28;;;4.13;;
75316;SDS011;63913;51.492;10.368;2023-06-26T09:51:54;6.40;;;4.55;;
75316;SDS011;63913;51.492;10.368;2023-06-26T09:54:21;19.92;;;4.40;;
75316;SDS011;63913;51.492;10.368;2023-06-26T09:56:47;5.47;;;4.63;;
75316;SDS011;63913;51.492;10.368;2023-06-26T09:59:12;5.88;;;4.43;;
75316;SDS011;63913;51.492;10.368;2023-06-26T10:01:40;4.97;;;3.85;;
75316;SDS011;63913;51.492;10.368;2023-06-26T10:04:06;4.50;;;3.80;;
75316;SDS011;63913;51.492;10.368;2023-06-26T10:06:33;4.72;;;4.22;;
75316;SDS011;63913;51.492;10.368;2023-06-26T10:09:01;7.85;;;3.92;;
75316;SDS011;63913;51.492;10.368;2023-06-26T10:11:40;4.88;;;4.38;;
75316;SDS011;63913;51.492;10.368;2023-06-26T10:14:10;5.65;;;4.50;;
75316;SDS011;63913;51.492;10.368;2023-06-26T10:16:36;4.85;;;3.83;;
75316;SDS011;63913;51.492;10.368;2023-06-26T10:19:05;7.00;;;4.22;;
75316;SDS011;63913;51.492;10.368;2023-06-26T10:21:33;6.60;;;4.10;;
75316;SDS011;63913;51.492;10.368;2023-06-26T10:24:00;4.72;;;4.28;;
75316;SDS011;63913;51.492;10.368;2023-06-26T10:26:27;6.05;;;4.53;;
75316;SDS011;63913;51.492;10.368;2023-06-26T10:28:54;5.68;;;4.55;;
75316;SDS011;63913;51.492;10.368;2023-06-26T10:31:24;5.47;;;4.90;;
75316;SDS011;63913;51.492;10.368;2023-06-26T10:33:52;5.00;;;4.10;;
75316;SDS011;63913;51.492;10.368;2023-06-26T10:36:20;7.72;;;4.55;;
75316;SDS011;63913;51.492;10.368;2023-06-26T10:38:52;5.80;;;4.80;;
75316;SDS011;63913;51.492;10.368;2023-06-26T10:41:24;5.53;;;4.95;;
75316;SDS011;63913;51.492;10.368;2023-06-26T10:44:12;6.88;;;5.13;;
75316;SDS011;63913;51.492;10.368;2023-06-26T10:46:49;4.40;;;3.97;;
75316;SDS011;63913;51.492;10.368;2023-06-26T10:49:19;5.57;;;4.15;;
75316;SDS011;63913;51.492;10.368;2023-06-26T10:54:15;5.65;;;4.63;;
75316;SDS011;63913;51.492;10.368;2023-06-26T10:56:46;5.20;;;4.68;;
75316;SDS011;63913;51.492;10.368;2023-06-26T10:59:13;6.75;;;4.82;;
75316;SDS011;63913;51.492;10.368;2023-06-26T11:01:43;5.85;;;4.85;;
75316;SDS011;63913;51.492;10.368;2023-06-26T11:04:10;5.13;;;4.50;;
75316;SDS011;63913;51.492;10.368;2023-06-26T11:06:36;6.50;;;4.65;;
75316;SDS011;63913;51.492;10.368;2023-06-26T11:14:25;7.22;;;5.13;;
75316;SDS011;63913;51.492;10.368;2023-06-26T11:16:52;6.88;;;5.30;;
75316;SDS011;63913;51.492;10.368;2023-06-26T11:19:18;5.43;;;4.82;;
75316;SDS011;63913;51.492;10.368;2023-06-26T11:21:44;5.68;;;4.75;;
75316;SDS011;63913;51.492;10.368;2023-06-26T11:24:11;7.25;;;5.78;;
75316;SDS011;63913;51.492;10.368;2023-06-26T11:26:39;9.25;;;5.38;;
75316;SDS011;63913;51.492;10.368;2023-06-26T11:29:09;6.20;;;5.43;;
75316;SDS011;63913;51.492;10.368;2023-06-26T11:31:36;7.28;;;5.55;;
75316;SDS011;63913;51.492;10.368;2023-06-26T11:34:03;9.43;;;5.57;;
75316;SDS011;63913;51.492;10.368;2023-06-26T11:36:34;7.70;;;5.55;;
75316;SDS011;63913;51.492;10.368;2023-06-26T11:39:03;7.32;;;5.32;;
75316;SDS011;63913;51.492;10.368;2023-06-26T11:41:33;7.45;;;5.22;;
75316;SDS011;63913;51.492;10.368;2023-06-26T11:46:30;7.10;;;5.25;;
75316;SDS011;63913;51.492;10.368;2023-06-26T11:48:56;12.68;;;5.82;;
75316;SDS011;63913;51.492;10.368;2023-06-26T11:51:22;9.38;;;5.55;;
75316;SDS011;63913;51.492;10.368;2023-06-26T11:53:47;10.02;;;5.40;;
75316;SDS011;63913;51.492;10.368;2023-06-26T11:56:16;11.38;;;5.53;;
75316;SDS011;63913;51.492;10.368;2023-06-26T11:58:55;12.65;;;6.35;;
75316;SDS011;63913;51.492;10.368;2023-06-26T12:01:20;9.98;;;6.35;;
75316;SDS011;63913;51.492;10.368;2023-06-26T12:03:47;10.20;;;6.25;;
75316;SDS011;63913;51.492;10.368;2023-06-26T12:06:13;11.40;;;6.57;;
75316;SDS011;63913;51.492;10.368;2023-06-26T12:08:39;7.32;;;5.97;;
75316;SDS011;63913;51.492;10.368;2023-06-26T12:11:05;10.15;;;6.57;;
75316;SDS011;63913;51.492;10.368;2023-06-26T12:13:31;9.82;;;6.60;;
75316;SDS011;63913;51.492;10.368;2023-06-26T12:15:57;10.00;;;7.28;;
75316;SDS011;63913;51.492;10.368;2023-06-26T12:18:22;12.25;;;7.10;;
75316;SDS011;63913;51.492;10.368;2023-06-26T12:20:50;8.55;;;7.18;;
75316;SDS011;63913;51.492;10.368;2023-06-26T12:23:16;12.80;;;6.82;;
75316;SDS011;63913;51.492;10.368;2023-06-26T12:25:43;10.95;;;6.95;;
75316;SDS011;63913;51.492;10.368;2023-06-26T12:28:18;11.50;;;7.65;;
75316;SDS011;63913;51.492;10.368;2023-06-26T12:30:47;10.25;;;7.53;;
75316;SDS011;63913;51.492;10.368;2023-06-26T12:33:13;9.73;;;7.63;;
75316;SDS011;63913;51.492;10.368;2023-06-26T12:35:39;11.43;;;7.88;;
75316;SDS011;63913;51.492;10.368;2023-06-26T12:38:07;10.95;;;8.05;;
75316;SDS011;63913;51.492;10.368;2023-06-26T12:43:11;12.25;;;7.55;;
75316;SDS011;63913;51.492;10.368;2023-06-26T12:45:37;9.50;;;7.45;;
75316;SDS011;63913;51.492;10.368;2023-06-26T12:48:07;11.40;;;8.18;;
75316;SDS011;63913;51.492;10.368;2023-06-26T12:50:43;10.35;;;7.40;;
75316;SDS011;63913;51.492;10.368;2023-06-26T12:53:10;9.90;;;8.00;;
75316;SDS011;63913;51.492;10.368;2023-06-26T12:55:35;13.52;;;9.00;;
75316;SDS011;63913;51.492;10.368;2023-06-26T12:58:01;10.85;;;7.60;;
75316;SDS011;63913;51.492;10.368;2023-06-26T13:00:26;13.23;;;9.20;;
75316;SDS011;63913;51.492;10.368;2023-06-26T13:02:52;13.20;;;9.40;;
75316;SDS011;63913;51.492;10.368;2023-06-26T13:05:18;10.45;;;8.73;;
75316;SDS011;63913;51.492;10.368;2023-06-26T13:07:43;14.50;;;9.75;;
75316;SDS011;63913;51.492;10.368;2023-06-26T13:10:08;15.38;;;9.70;;
75316;SDS011;63913;51.492;10.368;2023-06-26T13:12:34;12.25;;;8.90;;
75316;SDS011;63913;51.492;10.368;2023-06-26T13:14:59;11.07;;;9.02;;
75316;SDS011;63913;51.492;10.368;2023-06-26T13:17:25;12.60;;;9.93;;
75316;SDS011;63913;51.492;10.368;2023-06-26T13:19:50;13.00;;;9.50;;
75316;SDS011;63913;51.492;10.368;2023-06-26T13:22:15;14.27;;;9.88;;
75316;SDS011;63913;51.492;10.368;2023-06-26T13:24:41;10.10;;;8.73;;
75316;SDS011;63913;51.492;10.368;2023-06-26T13:27:06;13.02;;;9.10;;
75316;SDS011;63913;51.492;10.368;2023-06-26T13:29:31;10.02;;;8.25;;
75316;SDS011;63913;51.492;10.368;2023-06-26T13:31:57;11.80;;;9.77;;
75316;SDS011;63913;51.492;10.368;2023-06-26T13:34:23;12.95;;;11.05;;
75316;SDS011;63913;51.492;10.368;2023-06-26T13:36:52;11.55;;;9.30;;
75316;SDS011;63913;51.492;10.368;2023-06-26T13:39:18;14.60;;;10.32;;
75316;SDS011;63913;51.492;10.368;2023-06-26T13:41:44;13.77;;;9.73;;
75316;SDS011;63913;51.492;10.368;2023-06-26T13:44:10;14.10;;;9.52;;
75316;SDS011;63913;51.492;10.368;2023-06-26T13:46:35;10.18;;;9.07;;
75316;SDS011;63913;51.492;10.368;2023-06-26T13:49:01;16.95;;;11.27;;
75316;SDS011;63913;51.492;10.368;2023-06-26T13:51:26;9.48;;;8.50;;
75316;SDS011;63913;51.492;10.368;2023-06-26T13:53:51;11.75;;;9.75;;
75316;SDS011;63913;51.492;10.368;2023-06-26T13:56:17;13.38;;;9.93;;
75316;SDS011;63913;51.492;10.368;2023-06-26T13:58:42;11.38;;;8.63;;
75316;SDS011;63913;51.492;10.368;2023-06-26T14:01:08;12.20;;;9.45;;
75316;SDS011;63913;51.492;10.368;2023-06-26T14:03:33;11.88;;;8.75;;
75316;SDS011;63913;51.492;10.368;2023-06-26T14:05:59;12.88;;;9.27;;
75316;SDS011;63913;51.492;10.368;2023-06-26T14:08:24;13.57;;;8.93;;
75316;SDS011;63913;51.492;10.368;2023-06-26T14:10:49;13.40;;;7.57;;
75316;SDS011;63913;51.492;10.368;2023-06-26T14:13:15;11.75;;;6.47;;
75316;SDS011;63913;51.492;10.368;2023-06-26T14:15:41;8.00;;;6.20;;
75316;SDS011;63913;51.492;10.368;2023-06-26T14:18:07;8.73;;;6.15;;
75316;SDS011;63913;51.492;10.368;2023-06-26T14:20:33;6.75;;;5.95;;
75316;SDS011;63913;51.492;10.368;2023-06-26T14:22:58;9.48;;;6.32;;
75316;SDS011;63913;51.492;10.368;2023-06-26T14:25:24;7.68;;;6.15;;
75316;SDS011;63913;51.492;10.368;2023-06-26T14:27:51;9.98;;;7.05;;
75316;SDS011;63913;51.492;10.368;2023-06-26T14:30:16;11.05;;;6.13;;
75316;SDS011;63913;51.492;10.368;2023-06-26T14:32:42;8.30;;;5.97;;
75316;SDS011;63913;51.492;10.368;2023-06-26T14:35:07;8.17;;;6.40;;
75316;SDS011;63913;51.492;10.368;2023-06-26T14:37:32;10.70;;;5.90;;
75316;SDS011;63913;51.492;10.368;2023-06-26T14:39:58;9.65;;;5.72;;
75316;SDS011;63913;51.492;10.368;2023-06-26T14:42:26;7.47;;;5.80;;
75316;SDS011;63913;51.492;10.368;2023-06-26T14:44:51;8.40;;;5.90;;
75316;SDS011;63913;51.492;10.368;2023-06-26T14:47:17;8.52;;;5.75;;